KCDW/CDW METAR and TAF weather

Enter ICAO airport designator
Station Type Date Time Source
KCDW METAR 2021/04/13 22:53 UTC NOAA

KCDW 132253Z VRB03KT 10SM CLR 19/04 A3001 RMK AO2 SLP168 T01890039


Station Type Date Time Source
KCDW Decoded METAR 2021/04/13 22:53 UTC NOAA

CALDWELL ESSEX COUNTY AIRPORT , NJ, United States (KCDW) 40-53N 074-17W 64M
Apr 13, 2021 - 06:53 PM EDT / 2021.04.13 2253 UTC
Wind: Variable at 3 MPH (3 KT):0
Visibility: 10 mile(s):0
Sky conditions: clear
Temperature: 66.0 F (18.9 C)
Dew Point: 39.0 F (3.9 C)
Relative Humidity: 36%
Pressure (altimeter): 30.01 in. Hg (1016 hPa)
ob: KCDW 132253Z VRB03KT 10SM CLR 19/04 A3001 RMK AO2 SLP168 T01890039
cycle: 23

Station Type Date Time Source
KCDW TAF UTC NOAA

Error!

Example: see airport list